Scatsta Airport

About
Name: Scatsta Airport
Identifier:  SCS/EGPM
Local Time:  25. Aug 14:13 BST
Location
Statistics
Flights per Day:
0 flights
Distance: 363km (225mi)
Flights delayed:
0% (0 flights per day delayed)
Delay Average: 26003950 minutes
Current Weather
  6kt (11km/h / 6mph) from 170°
  9km (6 mi.)
 METAR EGPM 251250Z AUTO 17006KT 130V230 9999 SCT018/// 19/15 Q1019

Current Delays

Departures
N/A
Arrivals
N/A

Destinations

Top Destinations
Airport Flights
per week
Seats
per week
  Aberdeen (ABZ) 2 84 0 12

Airlines & Planes

Top Airlines
Airline Flights
per Day
Seats
per Day
  Eastern Airways 0 12
Top Plane Types
Model Flights Seats
ATR 76-600 0.3/day 12/day 12